createdAt,value
2022-10-29T00:01:51.731Z,17.00
2022-10-29T00:04:40.848Z,16.90
2022-10-29T00:07:29.996Z,17.00
2022-10-29T00:10:20.618Z,17.00
2022-10-29T00:13:09.679Z,16.80
2022-10-29T00:15:58.471Z,16.50
2022-10-29T00:18:48.000Z,16.60
2022-10-29T00:21:38.316Z,16.70
2022-10-29T00:24:28.387Z,16.80
2022-10-29T00:27:18.952Z,16.80
2022-10-29T00:30:08.762Z,16.80
2022-10-29T00:32:58.324Z,16.90
2022-10-29T00:35:57.333Z,16.90
2022-10-29T00:38:46.892Z,16.90
2022-10-29T00:41:36.142Z,16.70
2022-10-29T00:44:33.069Z,16.60
2022-10-29T00:47:26.747Z,16.30
2022-10-29T00:50:16.989Z,16.40
2022-10-29T00:53:06.632Z,16.60
2022-10-29T00:55:56.251Z,16.40
2022-10-29T00:58:46.375Z,16.30
2022-10-29T01:01:37.202Z,16.40
2022-10-29T01:04:26.859Z,16.40
2022-10-29T01:07:16.434Z,16.30
2022-10-29T01:10:05.878Z,16.40
2022-10-29T01:13:10.401Z,16.50
2022-10-29T01:16:07.339Z,16.40
2022-10-29T01:19:06.550Z,16.20
2022-10-29T01:22:00.916Z,15.90
2022-10-29T01:25:27.582Z,15.90
2022-10-29T01:28:32.600Z,15.80
2022-10-29T01:31:32.877Z,15.70
2022-10-29T01:34:27.251Z,15.50
2022-10-29T06:07:27.769Z,14.70
2022-10-29T06:10:16.948Z,15.00
2022-10-29T06:13:13.106Z,15.10
2022-10-29T06:16:02.749Z,15.30
2022-10-29T06:18:52.158Z,15.30
2022-10-29T06:21:41.510Z,15.10
2022-10-29T06:24:32.154Z,15.10
2022-10-29T06:27:20.778Z,15.20
2022-10-29T06:30:11.292Z,15.20
2022-10-29T06:33:01.061Z,15.10
2022-10-29T06:35:50.654Z,15.20
2022-10-29T06:38:39.680Z,15.20
2022-10-29T06:41:30.363Z,15.00
2022-10-29T06:44:19.618Z,14.90
2022-10-29T06:47:08.518Z,14.80
2022-10-29T06:49:57.844Z,14.90
2022-10-29T06:52:55.050Z,14.80
2022-10-29T06:55:43.936Z,14.80
2022-10-29T06:58:34.663Z,14.90
2022-10-29T07:01:27.722Z,15.00
2022-10-29T07:04:21.267Z,15.10
2022-10-29T07:07:10.533Z,15.20
2022-10-29T07:10:00.703Z,15.10
2022-10-29T07:12:49.989Z,15.30
2022-10-29T07:15:40.755Z,15.30
2022-10-29T07:18:31.126Z,15.30
2022-10-29T07:21:20.304Z,15.30
2022-10-29T07:24:09.712Z,15.60
2022-10-29T07:26:58.861Z,15.80
2022-10-29T07:29:48.842Z,15.90
2022-10-29T07:32:39.341Z,16.10
2022-10-29T07:35:28.574Z,16.20
2022-10-29T07:38:17.725Z,16.40
2022-10-29T07:41:06.746Z,16.30
2022-10-29T07:43:55.846Z,16.40
2022-10-29T07:46:44.655Z,16.50
2022-10-29T07:49:35.299Z,16.70
2022-10-29T07:52:24.024Z,16.90
2022-10-29T07:55:13.055Z,17.20
2022-10-29T07:58:03.329Z,17.10
2022-10-29T08:00:52.642Z,17.30
2022-10-29T08:03:42.034Z,17.40
2022-10-29T08:06:32.983Z,17.50
2022-10-29T08:09:22.133Z,17.50
2022-10-29T08:12:12.238Z,17.50
2022-10-29T08:15:01.444Z,17.60
2022-10-29T08:17:51.534Z,17.80
2022-10-29T08:20:40.908Z,18.00
2022-10-29T08:23:31.511Z,18.20
2022-10-29T08:26:22.425Z,18.30
2022-10-29T08:29:12.548Z,18.50
2022-10-29T08:32:01.587Z,18.50
2022-10-29T08:34:50.776Z,18.40
2022-10-29T08:37:43.889Z,18.60
2022-10-29T08:40:44.014Z,18.80
2022-10-29T08:44:17.687Z,18.90
2022-10-29T08:47:15.052Z,18.90
2022-10-29T08:50:11.438Z,19.10
2022-10-29T08:53:22.353Z,19.20
2022-10-29T08:56:17.862Z,19.30
2022-10-29T08:59:10.306Z,19.30
2022-10-29T09:01:59.758Z,19.40
2022-10-29T09:04:49.419Z,19.40
2022-10-29T09:08:01.239Z,19.40
2022-10-29T09:10:56.229Z,19.50
2022-10-29T09:13:57.742Z,19.60
2022-10-29T09:16:53.906Z,19.70
2022-10-29T09:19:56.828Z,19.80
2022-10-29T09:22:52.907Z,20.00
2022-10-29T09:25:52.510Z,20.10
2022-10-29T09:28:57.966Z,20.20
2022-10-29T09:34:42.458Z,20.40
2022-10-29T09:37:42.137Z,20.50
2022-10-29T09:40:35.322Z,20.60
2022-10-29T09:43:36.163Z,20.80
2022-10-29T09:46:36.941Z,20.90
2022-10-29T09:49:39.992Z,21.00
2022-10-29T09:52:32.856Z,21.10
2022-10-29T09:55:25.949Z,21.30
2022-10-29T09:58:20.888Z,21.40
2022-10-29T10:01:11.017Z,21.50
2022-10-29T10:04:12.729Z,21.60
2022-10-29T10:09:58.175Z,21.80
2022-10-29T10:12:49.368Z,21.80
2022-10-29T10:15:40.106Z,22.00
2022-10-29T10:21:33.054Z,22.30
2022-10-29T10:24:32.579Z,22.40
2022-10-29T10:30:24.271Z,22.80
2022-10-29T10:36:18.029Z,22.90
2022-10-29T10:39:24.675Z,23.10
2022-10-29T10:42:20.537Z,23.20
2022-10-29T10:45:16.901Z,23.30
2022-10-29T10:48:11.273Z,23.30
2022-10-29T10:51:21.799Z,23.40
2022-10-29T10:57:23.947Z,23.80
2022-10-29T11:00:20.128Z,23.80
2022-10-29T11:03:17.607Z,23.90
2022-10-29T11:06:11.681Z,24.00
2022-10-29T11:09:05.183Z,24.00
2022-10-29T11:12:02.228Z,24.10
2022-10-29T11:14:55.532Z,23.90
2022-10-29T11:17:54.146Z,24.00
2022-10-29T11:20:47.679Z,24.30
2022-10-29T11:26:34.703Z,24.70
2022-10-29T11:29:37.030Z,24.90
2022-10-29T11:32:31.661Z,25.10
2022-10-29T11:35:25.775Z,25.20
2022-10-29T11:38:20.317Z,25.40
2022-10-29T11:41:23.813Z,25.50
2022-10-29T11:44:15.266Z,25.60
2022-10-29T11:47:24.906Z,25.70
2022-10-29T11:50:23.871Z,25.80
2022-10-29T11:53:29.388Z,25.70
2022-10-29T11:56:27.641Z,25.90
